createdAt,value
2018-07-21T00:02:23.936Z,4.90
2018-07-21T00:04:51.953Z,5.10
2018-07-21T00:07:20.062Z,4.60
2018-07-21T00:09:48.268Z,5.13
2018-07-21T00:12:16.477Z,4.80
2018-07-21T00:14:44.722Z,5.07
2018-07-21T00:17:12.831Z,5.60
2018-07-21T00:19:40.942Z,5.40
2018-07-21T00:22:09.070Z,5.20
2018-07-21T00:24:37.147Z,5.07
2018-07-21T00:27:05.227Z,4.47
2018-07-21T00:29:33.316Z,5.10
2018-07-21T00:32:01.392Z,5.00
2018-07-21T00:34:29.487Z,5.30
2018-07-21T00:36:57.572Z,5.50
2018-07-21T00:39:25.638Z,5.60
2018-07-21T00:41:53.749Z,4.73
2018-07-21T00:44:21.822Z,5.30
2018-07-21T00:46:49.914Z,4.83
2018-07-21T00:49:17.983Z,4.60
2018-07-21T00:51:46.114Z,5.10
2018-07-21T00:54:14.311Z,5.10
2018-07-21T00:56:42.495Z,5.57
2018-07-21T00:59:10.715Z,5.20
2018-07-21T01:01:38.863Z,5.70
2018-07-21T01:04:06.967Z,5.60
2018-07-21T01:06:35.063Z,5.27
2018-07-21T01:09:03.214Z,5.63
2018-07-21T01:11:31.292Z,5.10
2018-07-21T01:13:59.480Z,5.70
2018-07-21T01:16:27.711Z,4.97
2018-07-21T01:18:55.902Z,5.17
2018-07-21T01:21:24.059Z,5.03
2018-07-21T01:23:52.143Z,5.47
2018-07-21T01:26:20.224Z,5.00
2018-07-21T01:28:48.338Z,5.00
2018-07-21T01:31:16.419Z,5.57
2018-07-21T01:33:44.525Z,5.77
2018-07-21T01:36:12.802Z,5.87
2018-07-21T01:38:40.875Z,5.20
2018-07-21T01:41:08.950Z,5.50
2018-07-21T01:43:37.019Z,5.03
2018-07-21T01:46:05.248Z,4.63
2018-07-21T01:48:33.370Z,4.53
2018-07-21T01:51:01.474Z,5.50
2018-07-21T01:53:29.610Z,4.70
2018-07-21T01:55:57.684Z,5.60
2018-07-21T01:58:25.864Z,5.87
2018-07-21T02:00:53.934Z,5.40
2018-07-21T02:03:22.012Z,5.00
2018-07-21T02:05:50.130Z,5.00
2018-07-21T02:08:18.204Z,4.87
2018-07-21T02:10:46.278Z,5.30
2018-07-21T02:13:14.346Z,4.93
2018-07-21T02:15:42.435Z,5.90
2018-07-21T02:18:10.507Z,5.20
2018-07-21T02:20:38.583Z,5.00
2018-07-21T02:23:06.676Z,5.47
2018-07-21T02:25:34.743Z,5.57
2018-07-21T02:28:02.808Z,5.37
2018-07-21T02:30:30.898Z,5.10
2018-07-21T02:32:58.952Z,5.67
2018-07-21T02:35:27.111Z,5.40
2018-07-21T02:37:55.195Z,5.70
2018-07-21T02:40:23.396Z,5.07
2018-07-21T02:42:51.469Z,5.53
2018-07-21T02:45:19.542Z,5.50
2018-07-21T02:47:47.616Z,5.33
2018-07-21T02:50:15.693Z,5.40
2018-07-21T02:52:43.773Z,6.47
2018-07-21T02:55:11.844Z,5.60
2018-07-21T02:57:39.908Z,6.00
2018-07-21T03:00:07.982Z,6.37
2018-07-21T03:02:36.130Z,5.93
2018-07-21T03:05:04.159Z,6.53
2018-07-21T03:07:32.240Z,6.00
2018-07-21T03:10:00.358Z,6.40
2018-07-21T03:12:28.422Z,5.67
2018-07-21T03:14:56.584Z,6.50
2018-07-21T03:17:24.653Z,6.53
2018-07-21T03:19:52.722Z,5.30
2018-07-21T03:22:20.795Z,6.50
2018-07-21T03:24:48.914Z,5.57
2018-07-21T03:27:16.985Z,6.30
2018-07-21T03:29:45.056Z,5.90
2018-07-21T03:32:13.148Z,5.97
2018-07-21T03:34:41.228Z,6.17
2018-07-21T03:37:09.307Z,6.60
2018-07-21T03:39:37.367Z,7.30
2018-07-21T03:42:05.446Z,6.20
2018-07-21T03:44:33.503Z,7.20
2018-07-21T03:47:01.564Z,7.00
2018-07-21T03:49:29.610Z,6.00
2018-07-21T03:51:57.688Z,6.97
2018-07-21T03:54:25.753Z,7.33
2018-07-21T03:56:53.825Z,6.90
2018-07-21T03:59:21.988Z,6.80
2018-07-21T04:01:50.148Z,6.30
2018-07-21T04:04:18.317Z,6.57
2018-07-21T04:06:46.432Z,6.50
2018-07-21T04:09:14.526Z,6.97
2018-07-21T04:11:42.641Z,6.67
2018-07-21T04:14:10.839Z,6.13
2018-07-21T04:16:38.931Z,7.00
2018-07-21T04:19:07.576Z,6.00
2018-07-21T04:21:35.659Z,5.27
2018-07-21T04:24:03.839Z,6.20
2018-07-21T04:26:31.868Z,6.30
2018-07-21T04:28:59.963Z,5.60
2018-07-21T04:31:28.045Z,7.17
2018-07-21T04:33:56.428Z,7.67
2018-07-21T04:36:24.809Z,5.80
2018-07-21T04:38:52.879Z,6.23
2018-07-21T04:41:20.928Z,5.80
2018-07-21T04:43:49.130Z,6.60
2018-07-21T04:46:17.298Z,6.73
2018-07-21T04:48:45.494Z,5.80
2018-07-21T04:51:13.699Z,6.40
2018-07-21T04:53:41.897Z,5.57
2018-07-21T04:56:10.223Z,6.10
2018-07-21T04:58:38.496Z,6.50
2018-07-21T05:01:06.808Z,6.90
2018-07-21T05:03:34.952Z,5.73
2018-07-21T05:06:03.163Z,6.33
2018-07-21T05:08:31.379Z,6.50
2018-07-21T05:10:59.533Z,6.20
2018-07-21T05:13:27.867Z,5.93
2018-07-21T05:15:56.055Z,7.13
2018-07-21T05:18:24.244Z,5.53
2018-07-21T05:20:52.499Z,6.13
2018-07-21T05:23:20.722Z,6.37
2018-07-21T05:25:48.904Z,5.93
2018-07-21T05:28:17.151Z,6.03
2018-07-21T05:30:45.347Z,6.53
2018-07-21T05:33:13.544Z,6.30
2018-07-21T05:35:41.723Z,5.63
2018-07-21T05:38:09.976Z,6.47
2018-07-21T05:40:38.156Z,6.00
2018-07-21T05:43:06.372Z,5.47
2018-07-21T05:45:34.607Z,6.07
2018-07-21T05:48:02.903Z,5.30
2018-07-21T05:50:31.270Z,5.20
2018-07-21T05:52:59.507Z,5.90
2018-07-21T05:55:27.688Z,6.17
2018-07-21T05:57:55.879Z,5.67
2018-07-21T06:00:23.975Z,5.90
2018-07-21T06:02:52.216Z,5.60
2018-07-21T06:05:20.136Z,5.30
2018-07-21T06:07:48.230Z,5.97
2018-07-21T06:10:16.304Z,5.50
2018-07-21T06:12:44.555Z,6.07
2018-07-21T06:15:12.666Z,5.30
2018-07-21T06:17:40.752Z,4.80
2018-07-21T06:20:08.843Z,5.40
2018-07-21T06:22:36.924Z,5.00
2018-07-21T06:25:05.158Z,5.50
2018-07-21T06:27:33.199Z,4.40
2018-07-21T06:30:01.500Z,4.27
2018-07-21T06:32:29.627Z,4.60
2018-07-21T06:34:57.740Z,4.50
2018-07-21T06:37:25.883Z,4.23
2018-07-21T06:39:53.995Z,3.97
2018-07-21T06:42:22.089Z,5.10
2018-07-21T06:44:50.180Z,4.30
2018-07-21T06:47:18.268Z,4.10
2018-07-21T06:49:46.349Z,4.70
2018-07-21T06:52:14.487Z,4.03
2018-07-21T06:54:42.628Z,4.30
2018-07-21T06:57:10.739Z,3.90
2018-07-21T06:59:38.824Z,3.43
2018-07-21T07:02:06.914Z,4.80
2018-07-21T07:04:35.059Z,3.50
2018-07-21T07:07:03.155Z,2.87
2018-07-21T07:09:31.243Z,3.23
2018-07-21T07:11:59.325Z,3.10
2018-07-21T07:14:28.764Z,2.70
2018-07-21T07:16:57.522Z,2.70
2018-07-21T07:19:25.609Z,3.10
2018-07-21T07:21:53.688Z,2.90
2018-07-21T07:24:21.825Z,2.53
2018-07-21T07:26:50.033Z,3.40
2018-07-21T07:29:18.103Z,3.10
2018-07-21T07:31:46.175Z,4.00
2018-07-21T07:34:14.269Z,3.07
2018-07-21T07:36:42.335Z,3.17
2018-07-21T07:39:11.499Z,3.60
2018-07-21T07:41:39.827Z,2.97
2018-07-21T07:44:08.126Z,2.87
2018-07-21T07:46:36.287Z,2.87
2018-07-21T07:49:04.437Z,2.80
2018-07-21T07:51:32.548Z,3.20
2018-07-21T07:54:00.732Z,2.90
2018-07-21T07:56:28.939Z,2.50
2018-07-21T07:58:57.648Z,2.70
2018-07-21T08:01:26.079Z,3.10
2018-07-21T08:03:54.427Z,3.00
2018-07-21T08:06:23.734Z,2.60
2018-07-21T08:08:52.099Z,2.73
2018-07-21T08:11:20.604Z,3.23
2018-07-21T08:13:53.363Z,2.80
2018-07-21T08:16:21.702Z,3.07
2018-07-21T08:18:49.927Z,2.97
2018-07-21T08:21:18.792Z,3.10
2018-07-21T08:23:47.214Z,2.93
2018-07-21T08:26:15.626Z,2.83
2018-07-21T08:28:43.991Z,2.97
2018-07-21T08:31:12.560Z,2.80
2018-07-21T08:33:40.869Z,3.00
2018-07-21T08:36:09.353Z,3.70
2018-07-21T08:38:37.570Z,3.00
2018-07-21T08:41:05.883Z,3.30
2018-07-21T08:43:34.052Z,3.57
2018-07-21T08:46:02.304Z,3.80
2018-07-21T08:48:30.666Z,3.43
2018-07-21T08:50:58.872Z,4.00
2018-07-21T08:53:27.175Z,3.30
2018-07-21T08:55:55.476Z,3.67
2018-07-21T08:58:23.683Z,3.50
2018-07-21T09:00:51.896Z,4.13
2018-07-21T09:03:23.411Z,3.57
2018-07-21T09:05:54.480Z,3.53
2018-07-21T09:08:22.676Z,3.17
2018-07-21T09:10:50.879Z,2.80
2018-07-21T09:13:19.138Z,2.70
2018-07-21T09:15:47.354Z,3.10
2018-07-21T09:18:15.561Z,2.73
2018-07-21T09:20:43.772Z,2.40
2018-07-21T09:23:12.027Z,3.20
2018-07-21T09:25:40.231Z,3.80
2018-07-21T09:28:08.463Z,3.40
2018-07-21T09:30:36.781Z,3.07
2018-07-21T09:33:05.063Z,3.67
2018-07-21T09:35:33.308Z,4.10
2018-07-21T09:38:02.545Z,4.53
2018-07-21T09:40:30.817Z,4.17
2018-07-21T09:42:59.065Z,4.93
2018-07-21T09:45:27.296Z,4.97
2018-07-21T09:47:55.505Z,6.80
2018-07-21T09:50:23.736Z,4.83
2018-07-21T09:52:52.792Z,4.80
2018-07-21T09:55:20.991Z,5.73
2018-07-21T09:57:49.248Z,4.60
2018-07-21T10:00:22.687Z,5.13
2018-07-21T10:02:50.873Z,4.80
2018-07-21T10:05:19.083Z,4.00
2018-07-21T10:07:47.320Z,4.57
2018-07-21T10:10:15.517Z,4.23
2018-07-21T10:12:43.696Z,4.80
2018-07-21T10:15:11.892Z,5.50
2018-07-21T10:17:40.096Z,5.57
2018-07-21T10:20:08.287Z,5.63
2018-07-21T10:22:36.512Z,6.20
2018-07-21T10:25:09.927Z,6.17
2018-07-21T10:27:43.591Z,7.07
2018-07-21T10:30:12.838Z,6.17
2018-07-21T10:32:41.055Z,6.93
2018-07-21T10:35:21.811Z,7.43
2018-07-21T10:37:52.488Z,8.67
2018-07-21T10:40:20.845Z,8.50
2018-07-21T10:42:49.961Z,7.07
2018-07-21T10:45:18.207Z,7.60
2018-07-21T10:47:46.447Z,8.20
2018-07-21T10:50:14.635Z,9.00
2018-07-21T10:52:42.832Z,8.27
2018-07-21T10:55:11.578Z,8.77
2018-07-21T10:57:39.855Z,9.20
2018-07-21T11:00:08.140Z,9.23
2018-07-21T11:02:36.333Z,8.83
2018-07-21T11:05:04.577Z,9.17
2018-07-21T11:07:32.793Z,8.80
2018-07-21T11:10:00.985Z,9.23
2018-07-21T11:12:29.472Z,10.30
2018-07-21T11:14:58.148Z,9.40
2018-07-21T11:17:26.446Z,10.00
2018-07-21T11:19:54.623Z,9.90
2018-07-21T11:22:22.719Z,9.83
2018-07-21T11:24:50.805Z,9.17
2018-07-21T11:27:18.940Z,9.13
2018-07-21T11:29:48.377Z,8.87
2018-07-21T11:32:17.757Z,8.57
2018-07-21T11:34:45.828Z,10.07
2018-07-21T11:37:13.956Z,9.33
2018-07-21T11:39:42.184Z,9.83
2018-07-21T11:42:10.311Z,8.50
2018-07-21T11:44:38.493Z,9.30
2018-07-21T11:47:06.548Z,8.03
2018-07-21T11:49:34.723Z,9.00
2018-07-21T11:52:02.877Z,8.10
2018-07-21T11:54:30.943Z,9.17
2018-07-21T11:57:01.155Z,9.27
2018-07-21T11:59:29.831Z,9.60
2018-07-21T12:01:58.335Z,9.00
2018-07-21T12:04:27.041Z,8.47
2018-07-21T12:06:56.145Z,8.77
2018-07-21T12:09:24.418Z,9.80
2018-07-21T12:11:52.576Z,8.60
2018-07-21T12:14:20.677Z,8.30
2018-07-21T12:16:48.848Z,8.73
2018-07-21T12:19:16.967Z,8.37
2018-07-21T12:21:45.452Z,7.43
2018-07-21T12:24:16.727Z,8.20
2018-07-21T12:26:44.850Z,7.27
2018-07-21T12:29:12.937Z,7.70
2018-07-21T12:31:41.612Z,7.80
2018-07-21T12:34:09.843Z,7.00
2018-07-21T12:36:37.980Z,6.80
2018-07-21T12:39:08.028Z,7.20
2018-07-21T12:41:36.315Z,6.60
2018-07-21T12:44:04.511Z,5.73
2018-07-21T12:46:32.729Z,6.27
2018-07-21T12:49:03.106Z,6.20
2018-07-21T12:51:31.299Z,6.33
2018-07-21T12:53:59.460Z,6.70
2018-07-21T12:56:27.540Z,6.00
2018-07-21T12:58:55.620Z,4.83
2018-07-21T13:01:23.732Z,5.17
2018-07-21T13:03:51.813Z,4.40
2018-07-21T13:06:19.930Z,4.00
2018-07-21T13:08:49.002Z,4.67
2018-07-21T13:11:17.645Z,4.60
2018-07-21T13:13:46.592Z,4.53
2018-07-21T13:16:14.651Z,5.70
2018-07-21T13:18:45.179Z,5.50
2018-07-21T13:21:14.143Z,6.00
2018-07-21T13:23:43.259Z,5.27
2018-07-21T13:26:11.410Z,5.37
2018-07-21T13:28:39.531Z,5.20
2018-07-21T13:31:09.658Z,5.90
2018-07-21T13:33:37.740Z,6.17
2018-07-21T13:36:05.916Z,6.07
2018-07-21T13:38:34.252Z,5.17
2018-07-21T13:41:02.344Z,6.40
2018-07-21T13:43:30.454Z,7.03
2018-07-21T13:45:59.139Z,8.23
2018-07-21T13:48:27.281Z,6.70
2018-07-21T13:50:55.411Z,7.30
2018-07-21T13:53:23.540Z,7.40
2018-07-21T13:55:51.683Z,8.23
2018-07-21T13:58:19.912Z,7.23
2018-07-21T14:00:48.012Z,8.20
2018-07-21T14:03:17.166Z,8.93
2018-07-21T14:05:45.279Z,8.40
2018-07-21T14:08:13.359Z,7.60
2018-07-21T14:10:41.485Z,6.87
2018-07-21T14:13:09.596Z,7.10
2018-07-21T14:15:38.245Z,6.57
2018-07-21T14:18:08.327Z,8.43
2018-07-21T14:20:42.735Z,8.40
2018-07-21T14:23:22.825Z,8.27
2018-07-21T14:25:50.918Z,8.00
2018-07-21T14:28:19.009Z,9.10
2018-07-21T14:30:47.063Z,8.23
2018-07-21T14:33:15.152Z,7.20
2018-07-21T14:35:43.263Z,7.90
2018-07-21T14:38:11.322Z,8.13
2018-07-21T14:40:39.431Z,8.00
2018-07-21T14:43:07.604Z,9.07
2018-07-21T14:45:35.716Z,8.80
2018-07-21T14:48:03.825Z,7.70
2018-07-21T14:50:31.937Z,7.80
2018-07-21T14:53:00.017Z,8.90
2018-07-21T14:55:28.124Z,6.90
2018-07-21T14:57:56.272Z,7.80
2018-07-21T15:00:24.411Z,8.93
2018-07-21T15:02:52.486Z,9.40
2018-07-21T15:05:20.571Z,7.77
2018-07-21T15:07:48.651Z,7.03
2018-07-21T15:10:16.711Z,8.17
2018-07-21T15:12:44.831Z,7.90
2018-07-21T15:15:12.903Z,8.83
2018-07-21T15:17:41.047Z,8.00
2018-07-21T15:20:09.131Z,7.73
2018-07-21T15:22:37.271Z,7.97
2018-07-21T15:25:05.743Z,8.23
2018-07-21T15:27:33.865Z,8.27
2018-07-21T15:30:01.980Z,8.53
2018-07-21T15:32:30.070Z,7.73
2018-07-21T15:34:58.411Z,8.10
2018-07-21T15:37:26.522Z,8.53
2018-07-21T15:39:54.641Z,8.43
2018-07-21T15:42:22.706Z,8.33
2018-07-21T15:44:50.800Z,8.83
2018-07-21T15:47:18.985Z,8.00
2018-07-21T15:49:47.207Z,8.37
2018-07-21T15:52:15.394Z,8.33
2018-07-21T15:54:43.686Z,8.10
2018-07-21T15:57:11.831Z,7.13
2018-07-21T15:59:40.005Z,7.23
2018-07-21T16:02:08.137Z,6.27
2018-07-21T16:04:36.246Z,6.00
2018-07-21T16:07:04.399Z,6.43
2018-07-21T16:09:32.504Z,5.87
2018-07-21T16:12:00.695Z,5.97
2018-07-21T16:14:28.761Z,6.30
2018-07-21T16:16:56.843Z,6.27
2018-07-21T16:19:24.931Z,6.70
2018-07-21T16:21:53.749Z,6.10
2018-07-21T16:24:21.845Z,5.90
2018-07-21T16:26:49.994Z,7.17
2018-07-21T16:29:18.058Z,6.43
2018-07-21T16:31:46.296Z,6.70
2018-07-21T16:34:14.511Z,9.10
2018-07-21T16:36:42.849Z,7.77
2018-07-21T16:39:11.915Z,8.33
2018-07-21T16:41:40.145Z,22.10
2018-07-21T16:44:08.247Z,23.10
2018-07-21T16:46:36.904Z,7.33
2018-07-21T16:49:05.185Z,6.77
2018-07-21T16:51:33.255Z,7.80
2018-07-21T16:54:01.407Z,7.20
2018-07-21T16:56:29.477Z,6.90
2018-07-21T16:58:57.798Z,6.60
2018-07-21T17:01:25.868Z,7.13
2018-07-21T17:03:54.004Z,7.27
2018-07-21T17:06:22.103Z,7.20
2018-07-21T17:08:50.352Z,6.90
2018-07-21T17:11:18.439Z,6.93
2018-07-21T17:13:46.731Z,7.27
2018-07-21T17:16:14.855Z,7.23
2018-07-21T17:18:42.942Z,7.70
2018-07-21T17:21:11.407Z,7.87
2018-07-21T17:23:39.516Z,7.20
2018-07-21T17:26:07.598Z,6.50
2018-07-21T17:28:35.683Z,7.27
2018-07-21T17:31:03.939Z,8.03
2018-07-21T17:33:32.039Z,7.40
2018-07-21T17:36:00.129Z,7.27
2018-07-21T17:38:28.248Z,8.23
2018-07-21T17:40:56.329Z,7.23
2018-07-21T17:43:24.450Z,8.70
2018-07-21T17:45:52.724Z,7.63
2018-07-21T17:48:20.946Z,7.60
2018-07-21T17:50:49.027Z,8.27
2018-07-21T17:53:17.167Z,7.40
2018-07-21T17:55:45.360Z,7.63
2018-07-21T17:58:13.660Z,6.50
2018-07-21T18:00:41.774Z,7.50
2018-07-21T18:03:10.060Z,7.40
2018-07-21T18:05:38.311Z,6.90
2018-07-21T18:08:06.744Z,6.33
2018-07-21T18:10:34.925Z,7.40
2018-07-21T18:13:03.082Z,7.20
2018-07-21T18:15:31.447Z,7.33
2018-07-21T18:17:59.654Z,6.87
2018-07-21T18:20:27.850Z,7.47
2018-07-21T18:22:56.084Z,8.00
2018-07-21T18:25:24.470Z,7.60
2018-07-21T18:27:52.625Z,7.83
2018-07-21T18:30:20.785Z,7.87
2018-07-21T18:32:49.048Z,7.77
2018-07-21T18:35:17.301Z,8.70
2018-07-21T18:37:45.606Z,8.60
2018-07-21T18:40:13.915Z,7.63
2018-07-21T18:42:41.960Z,8.93
2018-07-21T18:45:10.258Z,8.00
2018-07-21T18:47:38.458Z,9.00
2018-07-21T18:50:07.523Z,8.60
2018-07-21T18:52:35.754Z,8.93
2018-07-21T18:55:04.103Z,8.47
2018-07-21T18:57:32.318Z,9.20
2018-07-21T19:00:00.473Z,8.30
2018-07-21T19:02:28.662Z,9.13
2018-07-21T19:04:56.962Z,8.83
2018-07-21T19:07:31.496Z,10.33
2018-07-21T19:10:00.785Z,9.50
2018-07-21T19:12:34.179Z,9.17
2018-07-21T19:15:02.352Z,9.90
2018-07-21T19:17:30.659Z,10.60
2018-07-21T19:20:04.067Z,9.43
2018-07-21T19:22:32.292Z,10.00
2018-07-21T19:25:04.685Z,9.50
2018-07-21T19:27:33.359Z,11.17
2018-07-21T19:30:02.220Z,11.37
2018-07-21T19:32:35.903Z,10.53
2018-07-21T19:35:04.239Z,10.30
2018-07-21T19:37:37.782Z,9.53
2018-07-21T19:40:07.755Z,10.47
2018-07-21T19:42:35.955Z,11.07
2018-07-21T19:45:04.174Z,9.70
2018-07-21T19:47:32.509Z,10.10
2018-07-21T19:50:00.777Z,10.60
2018-07-21T19:52:29.051Z,9.43
2018-07-21T19:54:57.317Z,11.30
2018-07-21T19:57:25.824Z,9.83
2018-07-21T19:59:54.073Z,10.57
2018-07-21T20:02:45.556Z,10.07
2018-07-21T20:05:13.901Z,10.93
2018-07-21T20:07:43.878Z,11.20
2018-07-21T20:10:12.101Z,11.20
2018-07-21T20:12:53.308Z,10.50
2018-07-21T20:15:21.492Z,10.87
2018-07-21T20:17:49.650Z,10.27
2018-07-21T20:20:18.277Z,10.40
2018-07-21T20:22:46.418Z,9.00
2018-07-21T20:25:14.828Z,9.20
2018-07-21T20:27:43.042Z,10.13
2018-07-21T20:30:11.271Z,9.70
2018-07-21T20:33:00.401Z,9.87
2018-07-21T20:35:28.744Z,9.83
2018-07-21T20:37:57.235Z,9.90
2018-07-21T20:40:25.747Z,9.67
2018-07-21T20:42:53.913Z,8.70
2018-07-21T20:45:32.315Z,9.10
2018-07-21T20:48:00.614Z,9.07
2018-07-21T20:50:28.772Z,9.50
2018-07-21T20:52:57.206Z,10.10
2018-07-21T20:55:26.456Z,8.93
2018-07-21T20:58:19.253Z,9.00
2018-07-21T21:00:47.426Z,8.80
2018-07-21T21:03:18.490Z,10.10
2018-07-21T21:05:49.402Z,9.83
2018-07-21T21:08:17.692Z,9.17
2018-07-21T21:10:45.827Z,9.10
2018-07-21T21:13:14.267Z,8.07
2018-07-21T21:15:42.429Z,9.00
2018-07-21T21:18:10.743Z,9.07
2018-07-21T21:20:38.939Z,7.60
2018-07-21T21:23:07.232Z,8.30
2018-07-21T21:25:35.377Z,7.97
2018-07-21T21:28:03.713Z,8.10
2018-07-21T21:30:31.927Z,7.27
2018-07-21T21:33:00.105Z,8.20
2018-07-21T21:35:29.554Z,8.13
2018-07-21T21:37:57.841Z,8.20
2018-07-21T21:40:53.692Z,8.53
2018-07-21T21:45:37.032Z,7.80
2018-07-21T21:48:05.324Z,7.60
2018-07-21T21:50:33.561Z,7.63
2018-07-21T21:53:01.832Z,7.87
2018-07-21T21:55:30.605Z,7.20
2018-07-21T21:57:58.828Z,7.73
2018-07-21T22:00:33.501Z,8.57
2018-07-21T22:03:02.902Z,7.20
2018-07-21T22:05:31.072Z,7.63
2018-07-21T22:07:59.267Z,6.87
2018-07-21T22:10:27.456Z,7.20
2018-07-21T22:12:56.506Z,7.10
2018-07-21T22:15:25.365Z,7.07
2018-07-21T22:17:53.554Z,8.20
2018-07-21T22:20:21.712Z,9.63
2018-07-21T22:22:49.886Z,9.47
2018-07-21T22:25:18.219Z,9.87
2018-07-21T22:27:46.387Z,9.50
2018-07-21T22:30:17.978Z,9.43
2018-07-21T22:32:46.166Z,8.27
2018-07-21T22:35:14.492Z,8.50
2018-07-21T22:37:42.804Z,8.00
2018-07-21T22:40:11.481Z,7.70
2018-07-21T22:42:43.834Z,7.67
2018-07-21T22:45:12.603Z,6.13
2018-07-21T22:47:41.300Z,6.47
2018-07-21T22:50:09.698Z,5.83
2018-07-21T22:52:38.157Z,6.30
2018-07-21T22:55:10.026Z,5.93
2018-07-21T22:57:38.235Z,5.30
2018-07-21T23:00:09.552Z,5.50
2018-07-21T23:02:38.081Z,5.33
2018-07-21T23:05:06.448Z,5.70
2018-07-21T23:07:34.882Z,6.47
2018-07-21T23:10:03.062Z,6.40
2018-07-21T23:12:31.561Z,6.50
2018-07-21T23:14:59.721Z,7.33
2018-07-21T23:17:27.842Z,7.93
2018-07-21T23:19:56.526Z,7.20
2018-07-21T23:22:24.631Z,7.93
2018-07-21T23:24:52.723Z,10.30
2018-07-21T23:27:20.866Z,9.80
2018-07-21T23:29:48.935Z,9.43
2018-07-21T23:32:17.097Z,8.80
2018-07-21T23:34:45.204Z,7.73
2018-07-21T23:37:13.639Z,8.40
2018-07-21T23:39:41.826Z,7.83
2018-07-21T23:42:16.091Z,8.00
2018-07-21T23:44:44.262Z,6.97
2018-07-21T23:47:12.364Z,7.30
2018-07-21T23:49:40.446Z,7.33
2018-07-21T23:52:08.542Z,6.90
2018-07-21T23:54:36.629Z,7.73
2018-07-21T23:57:05.056Z,7.63
2018-07-21T23:59:33.160Z,7.80
